createdAt,value
2022-09-22T00:01:09.584Z,54.30
2022-09-22T00:03:41.864Z,54.40
2022-09-22T00:06:18.468Z,54.40
2022-09-22T00:08:48.431Z,54.30
2022-09-22T00:11:23.969Z,54.30
2022-09-22T00:14:03.628Z,54.20
2022-09-22T00:16:42.641Z,54.40
2022-09-22T00:19:30.251Z,54.40
2022-09-22T00:21:57.238Z,54.50
2022-09-22T00:24:25.900Z,54.50
2022-09-22T00:26:58.260Z,54.50
2022-09-22T00:29:27.113Z,54.50
2022-09-22T00:31:54.596Z,54.50
2022-09-22T00:34:25.969Z,54.60
2022-09-22T00:36:52.668Z,54.60
2022-09-22T00:39:19.996Z,54.60
2022-09-22T00:41:50.042Z,54.60
2022-09-22T00:44:40.786Z,54.60
2022-09-22T00:47:26.301Z,54.70
2022-09-22T00:49:58.772Z,54.70
2022-09-22T00:52:27.679Z,54.70
2022-09-22T00:54:57.222Z,54.60
2022-09-22T00:57:28.265Z,54.50
2022-09-22T00:59:55.372Z,54.70
2022-09-22T01:02:22.196Z,54.70
2022-09-22T01:04:51.883Z,54.70
2022-09-22T01:07:21.772Z,54.70
2022-09-22T01:09:48.630Z,54.80
2022-09-22T01:12:15.567Z,54.90
2022-09-22T01:15:00.576Z,55.00
2022-09-22T01:17:47.016Z,55.00
2022-09-22T01:20:23.007Z,55.00
2022-09-22T01:23:16.311Z,55.00
2022-09-22T01:26:07.944Z,55.00
2022-09-22T01:28:40.175Z,55.10
2022-09-22T01:31:12.629Z,55.10
2022-09-22T01:33:58.745Z,55.10
2022-09-22T01:36:41.315Z,55.00
2022-09-22T01:39:30.769Z,54.90
2022-09-22T01:42:06.408Z,55.00
2022-09-22T01:44:47.537Z,55.10
2022-09-22T01:47:23.988Z,55.10
2022-09-22T01:50:01.781Z,55.20
2022-09-22T01:52:32.152Z,55.30
2022-09-22T01:55:01.148Z,55.30
2022-09-22T01:57:57.741Z,55.40
2022-09-22T02:00:24.746Z,55.50
2022-09-22T02:02:53.970Z,55.40
2022-09-22T02:05:52.335Z,55.40
2022-09-22T02:08:35.978Z,55.40
2022-09-22T02:11:09.898Z,55.40
2022-09-22T02:13:36.921Z,55.40
2022-09-22T02:16:05.423Z,55.40
2022-09-22T02:18:39.587Z,55.50
2022-09-22T02:21:06.355Z,55.50
2022-09-22T02:23:33.174Z,55.40
2022-09-22T02:26:02.764Z,55.40
2022-09-22T02:28:32.513Z,55.40
2022-09-22T02:31:19.648Z,55.40
2022-09-22T02:33:47.303Z,55.40
2022-09-22T02:36:38.289Z,55.40
2022-09-22T02:39:27.448Z,55.40
2022-09-22T02:42:05.160Z,55.50
2022-09-22T02:44:46.342Z,55.50
2022-09-22T02:47:35.127Z,55.70
2022-09-22T02:50:05.460Z,55.70
2022-09-22T02:52:32.294Z,55.70
2022-09-22T02:54:58.963Z,55.60
2022-09-22T02:57:25.612Z,55.70
2022-09-22T02:59:52.215Z,55.70
2022-09-22T03:02:18.859Z,55.80
2022-09-22T03:04:45.740Z,55.80
2022-09-22T03:07:12.394Z,55.80
2022-09-22T03:09:39.051Z,55.80
2022-09-22T03:12:06.111Z,55.80
2022-09-22T03:14:32.767Z,55.80
2022-09-22T03:16:59.409Z,55.90
2022-09-22T03:19:26.404Z,55.90
2022-09-22T03:21:53.223Z,55.90
2022-09-22T03:24:19.791Z,55.90
2022-09-22T03:26:46.587Z,56.00
2022-09-22T03:29:13.250Z,56.00
2022-09-22T03:31:40.169Z,56.00
2022-09-22T03:34:06.902Z,56.00
2022-09-22T03:36:33.929Z,56.00
2022-09-22T03:39:00.685Z,56.10
2022-09-22T03:41:27.486Z,56.10
2022-09-22T03:43:54.398Z,56.10
2022-09-22T03:46:21.079Z,56.10
2022-09-22T03:48:47.751Z,56.10
2022-09-22T03:51:14.652Z,56.10
2022-09-22T03:53:41.496Z,56.20
2022-09-22T03:56:13.225Z,56.20
2022-09-22T03:58:42.116Z,56.20
2022-09-22T04:01:11.206Z,56.20
2022-09-22T04:03:38.865Z,56.20
2022-09-22T04:06:05.964Z,56.20
2022-09-22T04:08:32.675Z,56.20
2022-09-22T04:11:00.091Z,56.30
2022-09-22T04:13:27.083Z,56.30
2022-09-22T04:15:53.830Z,56.60
2022-09-22T04:18:20.465Z,56.30
2022-09-22T04:20:47.107Z,56.40
2022-09-22T04:23:15.190Z,56.30
2022-09-22T04:25:42.033Z,56.30
2022-09-22T04:28:08.852Z,56.40
2022-09-22T04:30:36.748Z,56.50
2022-09-22T04:33:04.721Z,56.50
2022-09-22T04:35:31.673Z,56.60
2022-09-22T04:37:58.693Z,56.50
2022-09-22T04:40:25.701Z,56.60
2022-09-22T04:42:52.722Z,56.60
2022-09-22T04:45:19.496Z,56.50
2022-09-22T04:47:51.186Z,56.60
2022-09-22T04:50:20.065Z,56.60
2022-09-22T04:52:48.109Z,56.50
2022-09-22T04:55:16.372Z,56.60
2022-09-22T04:57:54.331Z,56.60
2022-09-22T05:00:22.712Z,56.60
2022-09-22T05:02:49.922Z,56.60
2022-09-22T05:05:17.450Z,56.70
2022-09-22T05:07:48.818Z,56.70
2022-09-22T05:10:20.010Z,56.80
2022-09-22T05:12:46.769Z,56.80
2022-09-22T05:15:14.642Z,56.80
2022-09-22T05:17:49.152Z,56.80
2022-09-22T05:20:16.529Z,56.90
2022-09-22T05:22:43.734Z,56.90
2022-09-22T05:25:12.746Z,56.80
2022-09-22T05:27:52.154Z,56.80
2022-09-22T05:30:20.758Z,56.80
2022-09-22T05:32:48.520Z,56.80
2022-09-22T05:35:18.559Z,57.40
2022-09-22T05:37:47.131Z,56.80
2022-09-22T05:40:14.686Z,56.80
2022-09-22T05:42:49.710Z,56.90
2022-09-22T05:45:18.735Z,56.90
2022-09-22T05:47:46.154Z,57.60
2022-09-22T05:50:14.570Z,57.00
2022-09-22T05:52:41.364Z,57.00
2022-09-22T05:55:10.258Z,57.10
2022-09-22T05:57:36.863Z,57.20
2022-09-22T06:00:05.874Z,57.30
2022-09-22T06:02:33.520Z,57.30
2022-09-22T06:05:00.147Z,57.40
2022-09-22T06:07:26.817Z,57.40
2022-09-22T06:09:53.403Z,57.60
2022-09-22T06:12:20.395Z,57.70
2022-09-22T06:14:47.046Z,57.70
2022-09-22T06:17:13.817Z,57.70
2022-09-22T06:19:41.091Z,57.80
2022-09-22T06:22:10.958Z,57.80
2022-09-22T06:24:37.574Z,58.00
2022-09-22T06:27:04.487Z,58.00
2022-09-22T06:29:31.084Z,58.00
2022-09-22T06:31:57.742Z,58.00
2022-09-22T06:34:26.989Z,58.20
2022-09-22T06:36:57.091Z,58.30
2022-09-22T06:39:23.717Z,58.40
2022-09-22T06:41:50.420Z,58.40
2022-09-22T06:44:17.272Z,58.50
2022-09-22T06:46:46.020Z,58.60
2022-09-22T06:49:13.615Z,58.70
2022-09-22T06:51:41.987Z,58.80
2022-09-22T06:54:08.639Z,58.90
2022-09-22T06:56:42.783Z,59.10
2022-09-22T06:59:14.386Z,59.20
2022-09-22T07:01:42.378Z,59.40
2022-09-22T07:04:10.365Z,59.50
2022-09-22T07:06:37.315Z,59.60
2022-09-22T07:09:08.399Z,59.80
2022-09-22T07:11:39.051Z,60.50
2022-09-22T07:14:08.528Z,60.00
2022-09-22T07:16:36.202Z,60.20
2022-09-22T07:19:04.712Z,60.20
2022-09-22T07:21:37.666Z,60.40
2022-09-22T07:24:07.316Z,60.60
2022-09-22T07:26:37.212Z,60.70
2022-09-22T07:29:07.758Z,61.40
2022-09-22T07:31:36.557Z,61.00
2022-09-22T07:34:03.552Z,61.10
2022-09-22T07:36:32.607Z,61.10
2022-09-22T07:39:08.098Z,61.30
2022-09-22T07:41:42.682Z,61.40
2022-09-22T07:44:31.000Z,61.50
2022-09-22T07:46:58.199Z,61.60
2022-09-22T07:49:25.924Z,61.70
2022-09-22T07:52:15.193Z,61.80
2022-09-22T07:54:57.242Z,62.10
2022-09-22T08:09:27.956Z,62.70
2022-09-22T08:15:42.522Z,63.10
2022-09-22T08:22:04.954Z,63.70
2022-09-22T08:24:56.823Z,63.70
2022-09-22T08:27:50.606Z,63.70
2022-09-22T08:30:20.651Z,64.00
2022-09-22T08:36:16.566Z,64.30
2022-09-22T08:39:02.749Z,64.50
2022-09-22T08:45:27.153Z,64.80
2022-09-22T08:54:38.753Z,65.10
2022-09-22T08:58:16.585Z,65.00
2022-09-22T09:01:03.508Z,65.30
2022-09-22T09:07:22.708Z,65.00
2022-09-22T09:10:43.604Z,64.80
2022-09-22T09:20:03.359Z,63.30
2022-09-22T09:22:59.265Z,62.80
2022-09-22T09:26:05.847Z,62.00
2022-09-22T09:32:09.412Z,60.80
2022-09-22T09:43:59.685Z,58.80
2022-09-22T09:46:38.670Z,57.90
2022-09-22T09:49:25.166Z,57.40
2022-09-22T09:52:00.075Z,56.70
2022-09-22T09:54:50.054Z,56.60
2022-09-22T10:10:41.149Z,54.00
2022-09-22T10:20:16.257Z,52.40
2022-09-22T10:22:55.667Z,50.90
2022-09-22T10:44:49.146Z,48.60
2022-09-22T10:50:59.405Z,47.90
2022-09-22T10:54:05.039Z,48.50
2022-09-22T10:56:46.495Z,47.00
2022-09-22T10:59:51.335Z,46.80
2022-09-22T11:02:33.773Z,46.20
2022-09-22T11:05:53.263Z,45.20
2022-09-22T11:08:39.320Z,44.90
2022-09-22T11:15:58.388Z,43.20
2022-09-22T11:45:23.556Z,38.90
2022-09-22T11:52:39.561Z,38.90
2022-09-22T11:59:27.243Z,37.70
2022-09-22T12:03:12.341Z,37.30
2022-09-22T12:05:55.371Z,36.90
2022-09-22T12:12:03.131Z,36.50
2022-09-22T12:15:43.202Z,36.80
2022-09-22T12:21:33.265Z,36.40
2022-09-22T12:26:53.193Z,36.50
2022-09-22T12:29:25.748Z,36.20
2022-09-22T12:31:57.674Z,35.70
2022-09-22T12:34:34.590Z,35.20
2022-09-22T12:37:12.944Z,34.80
2022-09-22T12:39:51.557Z,34.30
2022-09-22T12:42:32.902Z,33.90
2022-09-22T12:45:24.768Z,33.20
2022-09-22T12:47:53.132Z,33.20
2022-09-22T12:50:37.928Z,33.90
2022-09-22T12:53:21.708Z,33.20
2022-09-22T12:56:31.354Z,32.80
2022-09-22T12:59:03.298Z,32.00
2022-09-22T13:01:39.886Z,30.70
2022-09-22T13:19:03.156Z,30.50
2022-09-22T13:21:33.836Z,30.30
2022-09-22T13:27:40.952Z,30.40
2022-09-22T13:34:42.637Z,30.80
2022-09-22T13:37:16.644Z,30.10
2022-09-22T13:39:47.544Z,30.20
2022-09-22T13:42:22.286Z,29.90
2022-09-22T13:45:07.269Z,29.70
2022-09-22T14:10:14.048Z,27.90
2022-09-22T14:17:20.413Z,27.80
2022-09-22T14:20:07.518Z,28.40
2022-09-22T14:22:58.477Z,27.80
2022-09-22T14:25:27.202Z,27.40
2022-09-22T14:27:59.280Z,27.40
2022-09-22T14:30:56.614Z,27.20
2022-09-22T14:33:40.154Z,27.10
2022-09-22T14:51:49.341Z,27.00
2022-09-22T14:54:45.256Z,27.10
2022-09-22T15:00:55.675Z,26.80
2022-09-22T15:03:27.950Z,27.00
2022-09-22T15:05:55.861Z,27.20
2022-09-22T15:08:28.055Z,27.40
2022-09-22T15:18:08.150Z,26.90
2022-09-22T15:20:52.663Z,27.00
2022-09-22T15:24:03.258Z,27.00
2022-09-22T15:38:56.119Z,27.00
2022-09-22T15:41:58.743Z,27.00
2022-09-22T15:53:31.524Z,27.10
2022-09-22T15:56:34.051Z,26.90
2022-09-22T16:02:50.772Z,26.60
2022-09-22T16:05:43.057Z,26.90
2022-09-22T16:15:24.078Z,27.00
2022-09-22T16:21:18.604Z,27.40
2022-09-22T16:24:50.688Z,27.50
2022-09-22T16:33:13.885Z,27.80
2022-09-22T16:36:08.758Z,27.90
2022-09-22T16:38:43.744Z,28.50
2022-09-22T16:48:33.019Z,29.30
2022-09-22T16:59:42.004Z,31.70
2022-09-22T17:05:45.215Z,33.10
2022-09-22T17:14:57.754Z,35.20
2022-09-22T17:17:41.080Z,35.60
2022-09-22T17:20:28.526Z,36.20
2022-09-22T17:23:08.166Z,36.50
2022-09-22T17:25:37.282Z,37.20
2022-09-22T17:28:13.840Z,37.30
2022-09-22T17:31:42.959Z,37.60
2022-09-22T17:37:06.911Z,37.70
2022-09-22T17:42:24.864Z,38.30
2022-09-22T17:44:54.615Z,38.70
2022-09-22T17:47:47.088Z,39.40
2022-09-22T17:53:39.358Z,39.60
2022-09-22T17:56:53.375Z,39.90
2022-09-22T18:02:03.638Z,40.80
2022-09-22T18:04:32.623Z,40.70
2022-09-22T18:07:40.879Z,41.00
2022-09-22T18:10:16.990Z,41.90
2022-09-22T18:12:44.385Z,41.90
2022-09-22T18:15:14.046Z,42.30
2022-09-22T18:17:43.407Z,42.70
2022-09-22T18:20:24.143Z,43.00
2022-09-22T18:22:51.155Z,43.20
2022-09-22T18:25:37.887Z,43.40
2022-09-22T18:28:09.308Z,43.70
2022-09-22T18:30:40.536Z,43.90
2022-09-22T18:33:07.164Z,44.20
2022-09-22T18:35:46.190Z,44.50
2022-09-22T18:38:43.155Z,44.60
2022-09-22T18:41:09.926Z,45.30
2022-09-22T18:43:40.343Z,45.10
2022-09-22T18:46:34.102Z,45.40
2022-09-22T18:49:13.927Z,45.70
2022-09-22T18:54:55.209Z,46.20
2022-09-22T18:57:25.450Z,46.10
2022-09-22T18:59:53.803Z,46.40
2022-09-22T19:02:22.504Z,46.40
2022-09-22T19:04:51.437Z,46.60
2022-09-22T19:07:41.074Z,46.90
2022-09-22T19:10:14.977Z,47.10
2022-09-22T19:12:42.666Z,47.90
2022-09-22T19:15:15.610Z,47.40
2022-09-22T19:17:55.983Z,47.60
2022-09-22T19:20:34.445Z,47.70
2022-09-22T19:23:08.471Z,47.80
2022-09-22T19:28:32.374Z,48.20
2022-09-22T19:36:22.073Z,48.60
2022-09-22T19:41:42.355Z,49.10
2022-09-22T19:44:09.839Z,49.00
2022-09-22T19:46:43.013Z,49.10
2022-09-22T20:00:57.723Z,49.70
2022-09-22T20:03:27.023Z,50.20
2022-09-22T20:06:01.159Z,49.70
2022-09-22T20:08:37.566Z,50.00
2022-09-22T20:11:25.060Z,50.40
2022-09-22T20:17:15.037Z,50.50
2022-09-22T20:20:09.416Z,50.60
2022-09-22T20:22:55.955Z,50.70
2022-09-22T20:25:50.310Z,50.70
2022-09-22T20:28:23.261Z,50.80
2022-09-22T20:33:37.248Z,51.20
2022-09-22T20:36:08.791Z,51.20
2022-09-22T20:38:50.050Z,51.30
2022-09-22T20:41:43.215Z,51.40
2022-09-22T20:44:26.498Z,51.40
2022-09-22T20:49:53.097Z,51.50
2022-09-22T20:55:18.647Z,51.70
2022-09-22T20:58:00.574Z,51.80
2022-09-22T21:00:31.405Z,51.90
2022-09-22T21:03:04.907Z,51.90
2022-09-22T21:05:31.942Z,52.10
2022-09-22T21:11:21.951Z,52.40
2022-09-22T21:14:17.769Z,52.30
2022-09-22T21:16:52.973Z,52.50
2022-09-22T21:19:36.473Z,52.50
2022-09-22T21:36:37.400Z,53.10
2022-09-22T21:44:52.148Z,53.20
2022-09-22T21:47:22.307Z,53.20
2022-09-22T21:55:35.433Z,53.40
2022-09-22T22:00:52.238Z,53.50
2022-09-22T22:06:35.835Z,53.60
2022-09-22T22:09:26.990Z,53.90
2022-09-22T22:15:14.627Z,53.90
2022-09-22T22:17:55.434Z,54.00
2022-09-22T22:20:25.353Z,53.90
2022-09-22T22:23:06.939Z,54.00
2022-09-22T22:34:41.295Z,54.10
2022-09-22T22:37:22.848Z,54.10
2022-09-22T22:40:15.728Z,54.10
2022-09-22T22:43:24.218Z,54.10
2022-09-22T22:48:50.528Z,54.20
2022-09-22T22:51:58.472Z,54.30
2022-09-22T23:00:55.459Z,54.40
2022-09-22T23:06:41.938Z,54.60
2022-09-22T23:09:15.063Z,54.80
2022-09-22T23:14:43.140Z,54.70
2022-09-22T23:17:10.010Z,54.80
2022-09-22T23:19:37.428Z,55.00
2022-09-22T23:31:33.220Z,55.00
2022-09-22T23:34:08.752Z,55.10
2022-09-22T23:36:44.319Z,55.20
2022-09-22T23:39:24.281Z,55.20
2022-09-22T23:42:12.268Z,55.40
2022-09-22T23:44:47.649Z,55.40
2022-09-22T23:47:40.319Z,55.40
2022-09-22T23:55:38.117Z,55.40
2022-09-22T23:58:07.104Z,55.50
